createdAt,value
2023-04-30T00:01:41.401Z,68.81
2023-04-30T00:04:13.749Z,69.19
2023-04-30T00:06:46.209Z,69.43
2023-04-30T00:09:18.318Z,69.79
2023-04-30T00:11:50.566Z,70.12
2023-04-30T00:14:22.760Z,70.29
2023-04-30T00:16:54.767Z,70.48
2023-04-30T00:19:27.053Z,70.52
2023-04-30T00:22:01.007Z,70.79
2023-04-30T00:24:33.137Z,71.13
2023-04-30T00:27:05.161Z,71.52
2023-04-30T00:29:37.865Z,71.98
2023-04-30T00:32:09.967Z,72.18
2023-04-30T00:34:42.276Z,72.49
2023-04-30T00:37:14.456Z,72.65
2023-04-30T00:39:46.521Z,72.82
2023-04-30T00:42:18.598Z,72.87
2023-04-30T00:44:50.653Z,73.21
2023-04-30T00:47:22.853Z,73.54
2023-04-30T00:49:55.539Z,73.77
2023-04-30T00:52:28.883Z,73.94
2023-04-30T00:55:01.071Z,74.26
2023-04-30T00:57:35.581Z,74.55
2023-04-30T01:00:10.120Z,74.73
2023-04-30T01:02:42.656Z,74.87
2023-04-30T01:05:14.866Z,75.28
2023-04-30T01:07:47.259Z,75.42
2023-04-30T01:10:19.797Z,75.52
2023-04-30T01:12:54.749Z,75.49
2023-04-30T01:15:35.765Z,75.77
2023-04-30T01:18:20.005Z,76.05
2023-04-30T01:20:57.866Z,76.09
2023-04-30T01:23:42.254Z,76.20
2023-04-30T01:26:36.610Z,76.25
2023-04-30T01:29:11.482Z,76.43
2023-04-30T01:31:45.514Z,76.57
2023-04-30T01:34:17.918Z,76.47
2023-04-30T01:37:01.852Z,76.54
2023-04-30T01:39:42.367Z,76.58
2023-04-30T01:42:26.484Z,76.72
2023-04-30T01:45:25.469Z,76.72
2023-04-30T01:48:00.756Z,76.85
2023-04-30T01:50:41.781Z,77.05
2023-04-30T01:53:17.289Z,77.45
2023-04-30T01:55:54.860Z,77.64
2023-04-30T01:58:28.084Z,77.58
2023-04-30T02:01:00.254Z,77.63
2023-04-30T02:03:34.043Z,77.83
2023-04-30T02:06:06.973Z,77.93
2023-04-30T02:08:39.016Z,77.88
2023-04-30T02:11:11.288Z,77.89
2023-04-30T02:13:43.510Z,77.83
2023-04-30T02:16:15.870Z,77.69
2023-04-30T02:18:48.520Z,77.57
2023-04-30T02:21:20.573Z,77.86
2023-04-30T02:23:52.947Z,77.90
2023-04-30T02:26:26.741Z,77.81
2023-04-30T02:28:58.941Z,77.40
2023-04-30T02:31:31.277Z,77.29
2023-04-30T02:34:03.505Z,77.19
2023-04-30T02:36:36.734Z,76.85
2023-04-30T02:39:09.219Z,76.57
2023-04-30T02:41:41.380Z,76.33
2023-04-30T02:44:13.756Z,76.17
2023-04-30T02:46:46.852Z,75.64
2023-04-30T02:49:19.110Z,75.14
2023-04-30T02:51:51.179Z,74.67
2023-04-30T02:54:23.315Z,74.09
2023-04-30T02:56:55.411Z,73.63
2023-04-30T02:59:27.577Z,72.96
2023-04-30T03:01:59.782Z,72.53
2023-04-30T03:04:31.910Z,72.08
2023-04-30T03:07:04.460Z,71.56
2023-04-30T03:09:37.660Z,71.25
2023-04-30T03:12:10.012Z,70.83
2023-04-30T03:14:42.447Z,70.19
2023-04-30T03:17:14.578Z,69.90
2023-04-30T03:19:46.708Z,69.48
2023-04-30T03:22:23.112Z,68.96
2023-04-30T03:24:55.648Z,68.67
2023-04-30T03:27:27.965Z,68.14
2023-04-30T03:30:00.335Z,68.13
2023-04-30T03:32:34.933Z,67.93
2023-04-30T03:35:08.046Z,67.39
2023-04-30T03:37:40.305Z,66.86
2023-04-30T03:40:13.422Z,66.17
2023-04-30T03:42:46.884Z,65.46
2023-04-30T03:45:20.226Z,64.81
2023-04-30T03:47:53.275Z,64.29
2023-04-30T03:50:25.645Z,64.12
2023-04-30T03:52:57.690Z,63.52
2023-04-30T03:55:30.164Z,63.06
2023-04-30T03:58:02.646Z,62.71
2023-04-30T04:00:34.830Z,62.39
2023-04-30T04:03:07.556Z,62.32
2023-04-30T04:05:39.737Z,62.08
2023-04-30T04:08:12.514Z,61.30
2023-04-30T04:10:45.152Z,60.79
2023-04-30T04:13:17.191Z,60.60
2023-04-30T04:15:49.476Z,60.47
2023-04-30T04:18:21.727Z,60.36
2023-04-30T04:20:53.696Z,60.40
2023-04-30T04:23:26.374Z,59.74
2023-04-30T04:25:58.441Z,58.98
2023-04-30T04:28:31.107Z,58.61
2023-04-30T04:31:03.608Z,58.48
2023-04-30T04:33:37.336Z,57.78
2023-04-30T04:36:09.498Z,57.48
2023-04-30T04:38:42.536Z,57.04
2023-04-30T04:41:14.992Z,57.14
2023-04-30T04:43:47.104Z,56.73
2023-04-30T04:46:19.659Z,56.41
2023-04-30T04:48:51.898Z,55.82
2023-04-30T04:51:24.143Z,55.84
2023-04-30T04:53:56.463Z,55.06
2023-04-30T04:56:28.599Z,54.69
2023-04-30T04:59:01.009Z,53.88
2023-04-30T05:01:33.530Z,53.48
2023-04-30T05:04:05.906Z,52.99
2023-04-30T05:06:38.308Z,52.96
2023-04-30T05:09:10.973Z,52.58
2023-04-30T05:11:44.113Z,51.60
2023-04-30T05:14:16.411Z,50.90
2023-04-30T05:16:49.358Z,50.94
2023-04-30T05:19:22.237Z,50.47
2023-04-30T05:21:54.804Z,50.19
2023-04-30T05:24:26.953Z,49.72
2023-04-30T05:26:59.174Z,49.47
2023-04-30T05:29:31.933Z,49.29
2023-04-30T05:32:04.153Z,49.75
2023-04-30T05:34:36.375Z,49.45
2023-04-30T05:37:08.520Z,49.63
2023-04-30T05:39:40.972Z,49.36
2023-04-30T05:42:13.058Z,49.59
2023-04-30T05:44:45.149Z,48.80
2023-04-30T05:47:17.278Z,48.88
2023-04-30T05:49:49.523Z,48.38
2023-04-30T05:52:21.856Z,48.31
2023-04-30T05:54:54.138Z,47.29
2023-04-30T05:57:26.463Z,46.16
2023-04-30T05:59:58.610Z,46.45
2023-04-30T06:02:32.679Z,45.05
2023-04-30T06:05:05.227Z,45.09
2023-04-30T06:07:37.884Z,44.74
2023-04-30T06:10:10.454Z,43.09
2023-04-30T06:12:42.731Z,42.39
2023-04-30T06:15:15.175Z,41.28
2023-04-30T06:17:47.296Z,41.12
2023-04-30T06:20:19.500Z,40.29
2023-04-30T06:22:51.850Z,40.27
2023-04-30T06:25:24.085Z,38.92
2023-04-30T06:27:56.542Z,39.18
2023-04-30T06:30:30.476Z,38.56
2023-04-30T06:33:02.972Z,37.95
2023-04-30T06:35:35.694Z,38.00
2023-04-30T06:38:25.725Z,37.44
2023-04-30T06:40:58.330Z,36.32
2023-04-30T06:43:30.591Z,36.18
2023-04-30T06:46:02.997Z,36.18
2023-04-30T06:48:35.759Z,36.53
2023-04-30T06:51:09.918Z,36.17
2023-04-30T06:53:41.687Z,35.47
2023-04-30T06:56:13.776Z,35.29
2023-04-30T06:58:45.994Z,34.06
2023-04-30T07:01:18.338Z,34.44
2023-04-30T07:03:52.554Z,34.38
2023-04-30T07:06:25.594Z,34.55
2023-04-30T07:08:59.136Z,33.39
2023-04-30T07:11:31.290Z,33.00
2023-04-30T07:14:03.569Z,33.25
2023-04-30T07:16:36.000Z,32.54
2023-04-30T07:19:08.152Z,32.67
2023-04-30T07:21:40.713Z,31.53
2023-04-30T07:24:12.938Z,31.34
2023-04-30T07:26:44.902Z,31.93
2023-04-30T07:29:18.450Z,30.17
2023-04-30T07:31:51.054Z,30.32
2023-04-30T07:34:23.502Z,29.87
2023-04-30T07:36:55.748Z,30.53
2023-04-30T07:39:27.791Z,29.76
2023-04-30T07:41:59.681Z,29.73
2023-04-30T07:44:32.791Z,29.72
2023-04-30T07:47:04.943Z,29.65
2023-04-30T07:49:37.134Z,29.47
2023-04-30T07:52:10.877Z,29.60
2023-04-30T07:54:43.351Z,29.56
2023-04-30T07:57:15.616Z,29.41
2023-04-30T07:59:50.528Z,29.85
2023-04-30T08:02:21.967Z,29.78
2023-04-30T08:04:54.118Z,29.29
2023-04-30T08:07:26.252Z,28.46
2023-04-30T08:09:58.355Z,28.77
2023-04-30T08:12:31.469Z,29.03
2023-04-30T08:15:06.214Z,29.15
2023-04-30T08:17:38.179Z,29.10
2023-04-30T08:20:10.882Z,28.81
2023-04-30T08:22:43.588Z,29.34
2023-04-30T08:25:16.052Z,29.45
2023-04-30T08:27:49.026Z,29.58
2023-04-30T08:30:20.922Z,29.36
2023-04-30T08:32:55.376Z,29.09
2023-04-30T08:35:27.102Z,29.24
2023-04-30T08:37:59.129Z,29.07
2023-04-30T08:40:50.322Z,29.58
2023-04-30T08:43:09.579Z,29.64
2023-04-30T08:45:42.252Z,30.01
2023-04-30T08:48:16.785Z,29.55
2023-04-30T08:50:49.504Z,29.95
2023-04-30T08:53:23.236Z,29.56
2023-04-30T08:55:55.484Z,29.89
2023-04-30T08:58:28.008Z,29.77
2023-04-30T09:01:01.018Z,30.38
2023-04-30T09:03:33.401Z,30.38
2023-04-30T09:06:05.751Z,30.71
2023-04-30T09:08:47.062Z,30.76
2023-04-30T09:11:24.693Z,30.97
2023-04-30T09:13:58.537Z,31.64
2023-04-30T09:16:33.625Z,32.69
2023-04-30T09:19:05.911Z,32.79
2023-04-30T09:21:38.989Z,34.88
2023-04-30T09:24:11.801Z,34.25
2023-04-30T09:26:46.206Z,34.26
2023-04-30T09:29:18.771Z,33.43
2023-04-30T09:31:51.423Z,33.19
2023-04-30T09:34:26.538Z,34.08
2023-04-30T09:36:59.518Z,34.73
2023-04-30T09:39:32.223Z,33.85
2023-04-30T09:42:11.456Z,33.89
2023-04-30T09:44:44.805Z,34.10
2023-04-30T09:47:20.829Z,33.88
2023-04-30T09:49:54.042Z,33.21
2023-04-30T09:52:26.891Z,32.84
2023-04-30T09:54:59.123Z,32.72
2023-04-30T09:57:35.035Z,32.98
2023-04-30T10:00:09.079Z,32.81
2023-04-30T10:02:40.445Z,32.74
2023-04-30T10:05:13.274Z,32.85
2023-04-30T10:07:45.770Z,33.44
2023-04-30T10:10:18.440Z,33.16
2023-04-30T10:12:53.662Z,33.20
2023-04-30T10:15:31.940Z,33.59
2023-04-30T10:18:12.871Z,33.44
2023-04-30T10:20:48.554Z,33.71
2023-04-30T10:23:22.091Z,33.31
2023-04-30T10:25:55.177Z,32.49
2023-04-30T10:28:28.185Z,32.06
2023-04-30T10:31:00.790Z,32.06
2023-04-30T10:33:54.222Z,31.76
2023-04-30T10:36:32.718Z,32.65
2023-04-30T10:39:06.398Z,31.93
2023-04-30T10:41:38.949Z,31.94
2023-04-30T10:44:11.335Z,32.05
2023-04-30T10:46:43.824Z,32.29
2023-04-30T10:49:16.180Z,32.40
2023-04-30T10:51:51.123Z,32.43
2023-04-30T10:54:28.628Z,32.36
2023-04-30T10:57:19.114Z,31.62
2023-04-30T10:59:57.236Z,31.03
2023-04-30T11:02:33.064Z,30.99
2023-04-30T11:05:13.020Z,31.27
2023-04-30T11:07:59.282Z,31.17
2023-04-30T11:10:36.041Z,31.76
2023-04-30T11:13:10.705Z,31.19
2023-04-30T11:15:44.741Z,31.07
2023-04-30T11:18:17.325Z,30.54
2023-04-30T11:20:52.874Z,30.41
2023-04-30T11:23:38.839Z,29.27
2023-04-30T11:26:03.841Z,29.46
2023-04-30T11:28:37.958Z,28.97
2023-04-30T11:31:10.178Z,29.26
2023-04-30T11:33:42.766Z,28.97
2023-04-30T11:36:17.357Z,28.47
2023-04-30T11:38:48.786Z,28.52
2023-04-30T11:41:23.286Z,29.06
2023-04-30T11:43:55.523Z,28.47
2023-04-30T11:46:30.252Z,28.62
2023-04-30T11:49:02.419Z,28.64
2023-04-30T11:51:37.698Z,28.61
2023-04-30T11:54:10.675Z,28.91
2023-04-30T11:56:44.290Z,29.08
2023-04-30T11:59:17.488Z,28.53
2023-04-30T12:01:49.779Z,28.44
2023-04-30T12:04:22.121Z,28.78
2023-04-30T12:06:54.317Z,28.92
2023-04-30T12:09:26.265Z,28.96
2023-04-30T12:11:59.221Z,29.54
2023-04-30T12:14:32.975Z,29.31
2023-04-30T12:17:05.337Z,29.58
2023-04-30T12:19:37.697Z,29.46
2023-04-30T12:22:09.930Z,28.97
2023-04-30T12:24:43.337Z,29.25
2023-04-30T12:27:16.692Z,29.18
2023-04-30T12:29:50.402Z,29.53
2023-04-30T12:32:25.526Z,29.60
2023-04-30T12:35:02.744Z,30.20
2023-04-30T12:37:35.200Z,30.40
2023-04-30T12:40:09.184Z,31.10
2023-04-30T12:42:43.817Z,31.21
2023-04-30T12:45:16.588Z,31.92
2023-04-30T12:47:49.226Z,31.67
2023-04-30T12:50:23.736Z,32.49
2023-04-30T12:52:55.955Z,33.56
2023-04-30T12:55:29.270Z,33.59
2023-04-30T12:58:06.448Z,33.74
2023-04-30T13:00:50.379Z,34.15
2023-04-30T13:03:23.491Z,34.15
2023-04-30T13:05:55.876Z,34.56
2023-04-30T13:08:28.176Z,35.05
2023-04-30T13:11:00.024Z,35.82
2023-04-30T13:13:32.246Z,35.54
2023-04-30T13:16:06.052Z,35.54
2023-04-30T13:18:38.207Z,35.99
2023-04-30T13:21:11.312Z,35.72
2023-04-30T13:23:51.756Z,35.94
2023-04-30T13:26:17.679Z,35.94
2023-04-30T13:28:50.222Z,36.29
2023-04-30T13:31:22.733Z,36.43
2023-04-30T13:33:57.520Z,36.77
2023-04-30T13:36:29.926Z,36.98
2023-04-30T13:39:02.449Z,37.50
2023-04-30T13:41:34.560Z,37.06
2023-04-30T13:44:07.000Z,37.03
2023-04-30T13:46:39.102Z,37.21
2023-04-30T13:49:11.377Z,37.40
2023-04-30T13:51:43.640Z,37.29
2023-04-30T13:54:15.765Z,37.73
2023-04-30T13:56:48.858Z,38.19
2023-04-30T13:59:21.077Z,37.96
2023-04-30T14:01:53.412Z,38.43
2023-04-30T14:04:25.539Z,38.75
2023-04-30T14:06:57.731Z,38.75
2023-04-30T14:09:30.325Z,39.18
2023-04-30T14:12:02.874Z,39.40
2023-04-30T14:14:37.983Z,39.35
2023-04-30T14:17:09.845Z,39.39
2023-04-30T14:19:42.658Z,40.01
2023-04-30T14:22:15.991Z,40.85
2023-04-30T14:24:49.065Z,40.90
2023-04-30T14:27:22.917Z,39.58
2023-04-30T14:29:56.409Z,40.13
2023-04-30T14:32:29.461Z,40.45
2023-04-30T14:35:02.027Z,40.37
2023-04-30T14:37:36.844Z,40.63
2023-04-30T14:40:11.145Z,41.29
2023-04-30T14:42:45.023Z,41.22
2023-04-30T14:45:19.521Z,41.48
2023-04-30T14:47:52.325Z,41.55
2023-04-30T14:50:24.807Z,42.11
2023-04-30T14:52:57.305Z,42.55
2023-04-30T14:55:29.539Z,43.11
2023-04-30T14:58:01.658Z,43.04
2023-04-30T15:00:33.856Z,42.56
2023-04-30T15:03:06.616Z,42.81
2023-04-30T15:05:39.066Z,43.72
2023-04-30T15:08:11.763Z,43.41
2023-04-30T15:10:44.059Z,44.21
2023-04-30T15:13:16.469Z,43.44
2023-04-30T15:15:49.819Z,43.29
2023-04-30T15:18:22.430Z,43.73
2023-04-30T15:20:54.636Z,44.57
2023-04-30T15:23:27.069Z,43.98
2023-04-30T15:25:59.655Z,44.68
2023-04-30T15:28:33.196Z,44.80
2023-04-30T15:31:06.550Z,44.80
2023-04-30T15:33:42.402Z,45.14
2023-04-30T15:36:14.726Z,45.71
2023-04-30T15:38:46.994Z,45.58
2023-04-30T15:41:19.248Z,45.99
2023-04-30T15:43:51.482Z,46.31
2023-04-30T15:46:23.811Z,46.08
2023-04-30T15:48:56.405Z,46.20
2023-04-30T15:51:29.535Z,46.72
2023-04-30T15:54:02.090Z,46.80
2023-04-30T15:56:37.584Z,47.65
2023-04-30T15:59:10.102Z,48.40
2023-04-30T16:01:42.655Z,49.24
2023-04-30T16:04:15.254Z,49.96
2023-04-30T16:06:47.620Z,52.47
2023-04-30T16:09:20.565Z,51.39
2023-04-30T16:11:52.886Z,54.23
2023-04-30T16:14:25.127Z,55.61
2023-04-30T16:16:57.379Z,54.87
2023-04-30T16:19:29.662Z,56.91
2023-04-30T16:22:02.004Z,55.48
2023-04-30T16:24:34.143Z,55.31
2023-04-30T16:27:07.418Z,56.42
2023-04-30T16:29:39.975Z,58.13
2023-04-30T16:32:12.252Z,58.84
2023-04-30T16:34:44.623Z,59.74
2023-04-30T16:37:16.767Z,58.29
2023-04-30T16:39:48.856Z,58.20
2023-04-30T16:42:21.090Z,57.18
2023-04-30T16:44:53.268Z,56.83
2023-04-30T16:47:25.816Z,57.49
2023-04-30T16:49:58.879Z,57.78
2023-04-30T16:52:33.290Z,58.01
2023-04-30T16:55:05.759Z,58.97
2023-04-30T16:57:37.884Z,59.30
2023-04-30T17:00:11.754Z,60.10
2023-04-30T17:02:49.287Z,61.43
2023-04-30T17:05:21.745Z,60.84
2023-04-30T17:07:53.868Z,62.07
2023-04-30T17:10:26.623Z,63.13
2023-04-30T17:13:00.595Z,63.36
2023-04-30T17:15:33.043Z,65.00
2023-04-30T17:18:05.931Z,66.08
2023-04-30T17:20:38.127Z,66.51
2023-04-30T17:23:10.200Z,68.29
2023-04-30T17:25:43.148Z,69.21
2023-04-30T17:28:16.613Z,69.12
2023-04-30T17:30:49.017Z,70.40
2023-04-30T17:33:21.105Z,71.56
2023-04-30T17:35:53.276Z,72.73
2023-04-30T17:38:25.903Z,73.03
2023-04-30T17:40:58.910Z,72.81
2023-04-30T17:43:31.389Z,73.65
2023-04-30T17:46:03.712Z,73.29
2023-04-30T17:48:35.849Z,74.89
2023-04-30T17:51:08.178Z,75.50
2023-04-30T17:53:40.824Z,76.18
2023-04-30T17:56:14.053Z,76.54
2023-04-30T17:58:46.106Z,76.73
2023-04-30T18:01:18.256Z,77.14
2023-04-30T18:03:51.118Z,77.09
2023-04-30T18:06:23.480Z,78.25
2023-04-30T18:08:55.718Z,77.49
2023-04-30T18:11:28.053Z,78.16
2023-04-30T18:14:02.046Z,78.73
2023-04-30T18:16:35.293Z,78.61
2023-04-30T18:19:07.336Z,78.81
2023-04-30T18:21:40.038Z,78.37
2023-04-30T18:24:12.165Z,79.86
2023-04-30T18:26:44.345Z,80.04
2023-04-30T18:29:17.800Z,79.64
2023-04-30T18:31:50.631Z,79.92
2023-04-30T18:34:22.743Z,80.16
2023-04-30T18:36:55.203Z,80.25
2023-04-30T18:39:27.417Z,79.97
2023-04-30T18:41:59.555Z,80.07
2023-04-30T18:44:32.644Z,80.78
2023-04-30T18:47:06.473Z,80.78
2023-04-30T18:49:38.887Z,80.40
2023-04-30T18:52:11.170Z,79.97
2023-04-30T18:54:43.423Z,79.87
2023-04-30T18:57:16.523Z,80.79
2023-04-30T18:59:49.386Z,80.47
2023-04-30T19:02:23.306Z,81.04
2023-04-30T19:04:56.068Z,80.65
2023-04-30T19:07:28.029Z,80.93
2023-04-30T19:10:00.270Z,81.10
2023-04-30T19:12:33.192Z,80.89
2023-04-30T19:15:07.352Z,80.71
2023-04-30T19:17:40.281Z,80.71
2023-04-30T19:20:13.087Z,80.97
2023-04-30T19:22:45.209Z,80.27
2023-04-30T19:25:18.030Z,81.13
2023-04-30T19:27:50.336Z,81.35
2023-04-30T19:30:22.535Z,80.41
2023-04-30T19:32:54.724Z,80.37
2023-04-30T19:35:27.132Z,80.21
2023-04-30T19:37:59.183Z,80.16
2023-04-30T19:40:31.389Z,80.31
2023-04-30T19:43:03.784Z,80.13
2023-04-30T19:45:36.209Z,80.06
2023-04-30T19:48:08.412Z,79.97
2023-04-30T19:50:43.264Z,80.74
2023-04-30T19:53:17.005Z,80.00
2023-04-30T19:55:49.160Z,80.64
2023-04-30T19:58:21.355Z,80.31
2023-04-30T20:00:53.864Z,80.65
2023-04-30T20:03:26.591Z,80.21
2023-04-30T20:05:59.170Z,80.61
2023-04-30T20:08:31.475Z,81.25
2023-04-30T20:11:04.020Z,80.99
2023-04-30T20:13:36.595Z,81.55
2023-04-30T20:16:10.305Z,81.46
2023-04-30T20:18:42.671Z,82.29
2023-04-30T20:21:15.202Z,82.19
2023-04-30T20:23:47.641Z,81.75
2023-04-30T20:26:21.166Z,81.12
2023-04-30T20:28:53.316Z,81.30
2023-04-30T20:31:25.411Z,80.84
2023-04-30T20:33:57.686Z,80.97
2023-04-30T20:36:31.320Z,81.56
2023-04-30T20:39:04.206Z,81.89
2023-04-30T20:41:36.412Z,81.45
2023-04-30T20:44:08.677Z,81.28
2023-04-30T20:46:40.890Z,81.35
2023-04-30T20:49:14.730Z,81.39
2023-04-30T20:51:46.878Z,81.15
2023-04-30T20:54:18.910Z,81.50
2023-04-30T20:56:51.589Z,81.30
2023-04-30T20:59:23.701Z,81.48
2023-04-30T21:01:55.832Z,81.43
2023-04-30T21:04:28.743Z,81.37
2023-04-30T21:07:01.234Z,81.83
2023-04-30T21:09:34.793Z,81.88
2023-04-30T21:12:07.037Z,81.83
2023-04-30T21:14:39.235Z,82.94
2023-04-30T21:17:11.625Z,82.58
2023-04-30T21:19:44.171Z,82.25
2023-04-30T21:22:16.205Z,82.25
2023-04-30T21:24:48.344Z,82.28
2023-04-30T21:27:21.085Z,82.78
2023-04-30T21:29:53.594Z,82.34
2023-04-30T21:32:26.127Z,82.35
2023-04-30T21:34:58.156Z,82.08
2023-04-30T21:37:30.433Z,82.37
2023-04-30T21:40:02.727Z,81.85
2023-04-30T21:42:35.032Z,81.78
2023-04-30T21:45:08.745Z,82.41
2023-04-30T21:47:40.840Z,82.29
2023-04-30T21:50:13.593Z,82.17
2023-04-30T21:52:45.911Z,81.90
2023-04-30T21:55:18.229Z,82.08
2023-04-30T21:57:52.161Z,82.52
2023-04-30T22:00:24.181Z,82.34
2023-04-30T22:02:56.265Z,82.27
2023-04-30T22:05:28.267Z,82.89
2023-04-30T22:08:00.477Z,82.64
2023-04-30T22:10:32.811Z,82.19
2023-04-30T22:13:05.097Z,82.46
2023-04-30T22:15:47.153Z,82.71
2023-04-30T22:18:10.998Z,82.35
2023-04-30T22:20:43.378Z,82.75
2023-04-30T22:23:16.722Z,82.40
2023-04-30T22:25:49.150Z,82.03
2023-04-30T22:28:23.438Z,82.26
2023-04-30T22:31:01.250Z,82.37
2023-04-30T22:33:37.790Z,82.22
2023-04-30T22:36:11.019Z,82.48
2023-04-30T22:38:43.071Z,82.63
2023-04-30T22:41:15.281Z,82.76
2023-04-30T22:43:48.172Z,82.38
2023-04-30T22:46:20.431Z,82.23
2023-04-30T22:48:52.817Z,82.17
2023-04-30T22:51:25.285Z,82.20
2023-04-30T22:54:00.341Z,82.04
2023-04-30T22:56:33.952Z,81.88
2023-04-30T22:59:06.652Z,81.99
2023-04-30T23:01:38.711Z,81.65
2023-04-30T23:04:10.767Z,82.06
2023-04-30T23:06:43.251Z,81.94
2023-04-30T23:09:15.922Z,82.04
2023-04-30T23:11:48.481Z,81.67
2023-04-30T23:14:20.490Z,81.41
2023-04-30T23:16:52.689Z,81.63
2023-04-30T23:19:24.881Z,81.43
2023-04-30T23:21:57.668Z,81.95
2023-04-30T23:24:31.396Z,81.34
2023-04-30T23:27:04.107Z,81.25
2023-04-30T23:29:36.586Z,81.25
2023-04-30T23:32:08.735Z,81.39
2023-04-30T23:34:41.041Z,81.57
2023-04-30T23:37:13.336Z,81.83
2023-04-30T23:39:45.513Z,81.80
2023-04-30T23:42:17.537Z,81.78
2023-04-30T23:44:49.567Z,82.14
2023-04-30T23:47:21.959Z,82.33
2023-04-30T23:49:54.287Z,82.30
2023-04-30T23:52:26.602Z,82.48
2023-04-30T23:54:58.738Z,82.32
2023-04-30T23:57:30.938Z,82.35
